Startpagina
METAR-TAF:

METAR-TAF

Vliegvelden :

Aeroporto Internacional de Rio Branco

Rio Branco, Acre, Brazilië

breedte: 10-00S, lengte: 067-48W, hoogte: 142 m

Actueel weer

Dit bericht is 57 minuten geleden gemaakt, om 02:00 UTC
Wind 6 kt uit het zuidwesten, variërend tussen het zuiden en het westzuidwesten
Temperatuur 22°C
Vochtigheid 100%
Druk
Zicht 10 km of meer
Verspreide wolken op 600 ft
Gebroken wolken op 1100 ft
buien in de omgeving

METAR: SBRB 170200Z 23006KT 190V250 9999 VCSH SCT006 BKN011 22/22 Q101 6

Tijdstip: 21:57 (02:57 UTC)

Verwachting

Dit bericht is 5 uur en het 12 minuten geleden gemaakt, om 21:45 UTC
Verwachting geldig van 17 om 00 UTC tot 17 om 12 UTC
Wind 4 kt uit het zuiden
Zicht 10 km of meer
Weinig wolken op 2000 ft
Wijzigt naar
van 17 om 05 UTC tot 17 om 07 UTC
Wind 2 kt uit het zuidzuidwesten
Zicht 10 km of meer
geen wolken onder 1500 m en geen cumulonimbus

TAF: SBRB 162145Z 1700/1712 17004KT 9999 FEW020 TX25/1700Z TN21/1711Z BECMG 1705/1707 20002KT CAVOK RMK PHC

Waarnemingen en weersverwachtingen van meer dan 4000 vliegvelden (METAR en TAF).

De beschikbare stations zijn de gele en rode punten op de kaart.

Ga met uw muis naar het station om de naam te zien.

Klik dan om waarnemingen en weersverwachtingen te zien.

kaart wijzigen: klik op de groene knoppen met een zwart kruis om in te zoomen, op de groene knop met een streepje om uit te zoomen of op de groene pijlen voor aangrenzende kaarten.


METAR-TAF: